sensor_id;sensor_type;location;lat;lon;timestamp;temperature;humidity
12289;DHT22;6207;49.308;7.336;2022-11-25T00:01:31;2.90;99.90
12289;DHT22;6207;49.308;7.336;2022-11-25T00:03:59;3.50;99.90
12289;DHT22;6207;49.308;7.336;2022-11-25T00:06:31;2.60;99.90
12289;DHT22;6207;49.308;7.336;2022-11-25T00:09:24;2.50;99.90
12289;DHT22;6207;49.308;7.336;2022-11-25T00:11:51;2.50;99.90
12289;DHT22;6207;49.308;7.336;2022-11-25T00:14:18;2.50;99.90
12289;DHT22;6207;49.308;7.336;2022-11-25T00:16:45;2.60;99.90
12289;DHT22;6207;49.308;7.336;2022-11-25T00:19:14;3.10;99.90
12289;DHT22;6207;49.308;7.336;2022-11-25T00:21:41;2.60;99.90
12289;DHT22;6207;49.308;7.336;2022-11-25T00:24:09;2.70;99.90
12289;DHT22;6207;49.308;7.336;2022-11-25T00:26:38;2.70;99.90
12289;DHT22;6207;49.308;7.336;2022-11-25T00:29:06;2.80;99.90
12289;DHT22;6207;49.308;7.336;2022-11-25T00:31:36;2.70;99.90
12289;DHT22;6207;49.308;7.336;2022-11-25T00:34:03;2.80;99.90
12289;DHT22;6207;49.308;7.336;2022-11-25T00:36:35;3.30;99.90
12289;DHT22;6207;49.308;7.336;2022-11-25T00:39:09;2.70;99.90
12289;DHT22;6207;49.308;7.336;2022-11-25T00:41:36;2.70;99.90
12289;DHT22;6207;49.308;7.336;2022-11-25T00:44:22;2.70;99.90
12289;DHT22;6207;49.308;7.336;2022-11-25T00:47:07;2.70;99.90
12289;DHT22;6207;49.308;7.336;2022-11-25T00:49:35;2.70;99.90
12289;DHT22;6207;49.308;7.336;2022-11-25T00:52:03;2.60;99.90
12289;DHT22;6207;49.308;7.336;2022-11-25T00:54:30;2.60;99.90
12289;DHT22;6207;49.308;7.336;2022-11-25T00:56:57;2.50;99.90
12289;DHT22;6207;49.308;7.336;2022-11-25T00:59:24;2.50;99.90
12289;DHT22;6207;49.308;7.336;2022-11-25T01:01:51;2.40;99.90
12289;DHT22;6207;49.308;7.336;2022-11-25T01:04:18;2.30;99.90
12289;DHT22;6207;49.308;7.336;2022-11-25T01:06:45;2.20;99.90
12289;DHT22;6207;49.308;7.336;2022-11-25T01:09:12;2.20;99.90
12289;DHT22;6207;49.308;7.336;2022-11-25T01:11:39;2.10;99.90
12289;DHT22;6207;49.308;7.336;2022-11-25T01:14:07;2.20;99.90
12289;DHT22;6207;49.308;7.336;2022-11-25T01:16:34;2.20;99.90
12289;DHT22;6207;49.308;7.336;2022-11-25T01:19:03;2.20;99.90
12289;DHT22;6207;49.308;7.336;2022-11-25T01:21:32;2.20;99.90
12289;DHT22;6207;49.308;7.336;2022-11-25T01:24:00;2.30;99.90
12289;DHT22;6207;49.308;7.336;2022-11-25T01:26:28;2.40;99.90
12289;DHT22;6207;49.308;7.336;2022-11-25T01:29:00;2.40;99.90
12289;DHT22;6207;49.308;7.336;2022-11-25T01:31:30;2.50;99.90
12289;DHT22;6207;49.308;7.336;2022-11-25T01:34:01;2.50;99.90
12289;DHT22;6207;49.308;7.336;2022-11-25T01:36:28;2.60;99.90
12289;DHT22;6207;49.308;7.336;2022-11-25T01:38:57;2.70;99.90
12289;DHT22;6207;49.308;7.336;2022-11-25T01:41:27;2.70;99.90
12289;DHT22;6207;49.308;7.336;2022-11-25T01:49:23;2.80;99.90
12289;DHT22;6207;49.308;7.336;2022-11-25T01:52:00;2.80;99.90
12289;DHT22;6207;49.308;7.336;2022-11-25T01:54:31;2.70;99.90
12289;DHT22;6207;49.308;7.336;2022-11-25T01:57:06;2.70;99.90
12289;DHT22;6207;49.308;7.336;2022-11-25T01:59:38;2.70;99.90
12289;DHT22;6207;49.308;7.336;2022-11-25T02:02:06;2.80;99.90
12289;DHT22;6207;49.308;7.336;2022-11-25T02:04:37;2.80;99.90
12289;DHT22;6207;49.308;7.336;2022-11-25T02:07:12;2.80;99.90
12289;DHT22;6207;49.308;7.336;2022-11-25T02:09:41;2.80;99.90
12289;DHT22;6207;49.308;7.336;2022-11-25T02:12:09;2.90;99.90
12289;DHT22;6207;49.308;7.336;2022-11-25T02:14:37;2.90;99.90
12289;DHT22;6207;49.308;7.336;2022-11-25T02:17:04;2.80;99.90
12289;DHT22;6207;49.308;7.336;2022-11-25T02:20:01;2.90;99.90
12289;DHT22;6207;49.308;7.336;2022-11-25T02:22:42;2.90;99.90
12289;DHT22;6207;49.308;7.336;2022-11-25T02:25:34;3.00;99.90
12289;DHT22;6207;49.308;7.336;2022-11-25T02:28:09;3.00;99.90
12289;DHT22;6207;49.308;7.336;2022-11-25T02:30:37;3.00;99.90
12289;DHT22;6207;49.308;7.336;2022-11-25T02:33:04;3.10;99.90
12289;DHT22;6207;49.308;7.336;2022-11-25T02:41:03;3.10;99.90
12289;DHT22;6207;49.308;7.336;2022-11-25T02:43:31;3.10;99.90
12289;DHT22;6207;49.308;7.336;2022-11-25T02:46:04;3.20;99.90
12289;DHT22;6207;49.308;7.336;2022-11-25T02:48:33;3.20;99.90
12289;DHT22;6207;49.308;7.336;2022-11-25T02:51:23;3.30;99.90
12289;DHT22;6207;49.308;7.336;2022-11-25T02:53:50;3.30;99.90
12289;DHT22;6207;49.308;7.336;2022-11-25T02:56:19;3.60;99.90
12289;DHT22;6207;49.308;7.336;2022-11-25T02:58:46;3.40;99.90
12289;DHT22;6207;49.308;7.336;2022-11-25T03:01:12;3.40;99.90
12289;DHT22;6207;49.308;7.336;2022-11-25T03:03:39;3.40;99.90
12289;DHT22;6207;49.308;7.336;2022-11-25T03:06:07;3.40;99.90
12289;DHT22;6207;49.308;7.336;2022-11-25T03:08:35;3.40;99.90
12289;DHT22;6207;49.308;7.336;2022-11-25T03:11:04;3.40;99.90
12289;DHT22;6207;49.308;7.336;2022-11-25T03:13:32;3.30;99.90
12289;DHT22;6207;49.308;7.336;2022-11-25T03:15:58;3.30;99.90
12289;DHT22;6207;49.308;7.336;2022-11-25T03:18:26;3.40;99.90
12289;DHT22;6207;49.308;7.336;2022-11-25T03:20:53;3.40;99.90
12289;DHT22;6207;49.308;7.336;2022-11-25T03:23:21;3.50;99.90
12289;DHT22;6207;49.308;7.336;2022-11-25T03:25:48;3.40;99.90
12289;DHT22;6207;49.308;7.336;2022-11-25T03:28:15;3.40;99.90
12289;DHT22;6207;49.308;7.336;2022-11-25T03:30:42;3.60;99.90
12289;DHT22;6207;49.308;7.336;2022-11-25T03:33:09;4.60;99.90
12289;DHT22;6207;49.308;7.336;2022-11-25T03:35:36;4.40;99.90
12289;DHT22;6207;49.308;7.336;2022-11-25T03:38:03;4.80;99.90
12289;DHT22;6207;49.308;7.336;2022-11-25T03:40:30;5.40;99.90
12289;DHT22;6207;49.308;7.336;2022-11-25T03:42:57;5.50;99.90
12289;DHT22;6207;49.308;7.336;2022-11-25T03:45:24;5.60;99.90
12289;DHT22;6207;49.308;7.336;2022-11-25T03:47:50;5.60;99.90
12289;DHT22;6207;49.308;7.336;2022-11-25T03:50:17;5.60;99.90
12289;DHT22;6207;49.308;7.336;2022-11-25T03:52:44;5.10;99.90
12289;DHT22;6207;49.308;7.336;2022-11-25T03:55:11;4.80;99.90
12289;DHT22;6207;49.308;7.336;2022-11-25T03:57:39;4.80;99.90
12289;DHT22;6207;49.308;7.336;2022-11-25T04:00:06;4.70;99.90
12289;DHT22;6207;49.308;7.336;2022-11-25T04:02:33;4.70;99.90
12289;DHT22;6207;49.308;7.336;2022-11-25T04:05:00;4.70;99.90
12289;DHT22;6207;49.308;7.336;2022-11-25T04:07:28;4.70;99.90
12289;DHT22;6207;49.308;7.336;2022-11-25T04:09:55;5.20;99.90
12289;DHT22;6207;49.308;7.336;2022-11-25T04:12:22;4.70;99.90
12289;DHT22;6207;49.308;7.336;2022-11-25T04:15:08;4.70;99.90
12289;DHT22;6207;49.308;7.336;2022-11-25T04:17:35;4.70;99.90
12289;DHT22;6207;49.308;7.336;2022-11-25T04:20:02;4.70;99.90
12289;DHT22;6207;49.308;7.336;2022-11-25T04:22:29;4.70;99.90
12289;DHT22;6207;49.308;7.336;2022-11-25T04:24:56;4.70;99.90
12289;DHT22;6207;49.308;7.336;2022-11-25T04:27:23;5.10;99.90
12289;DHT22;6207;49.308;7.336;2022-11-25T04:29:50;4.70;99.90
12289;DHT22;6207;49.308;7.336;2022-11-25T04:32:17;4.80;99.90
12289;DHT22;6207;49.308;7.336;2022-11-25T04:34:44;4.70;99.90
12289;DHT22;6207;49.308;7.336;2022-11-25T04:37:11;4.80;99.90
12289;DHT22;6207;49.308;7.336;2022-11-25T04:39:39;4.80;99.90
12289;DHT22;6207;49.308;7.336;2022-11-25T04:42:05;5.40;99.90
12289;DHT22;6207;49.308;7.336;2022-11-25T04:44:51;4.80;99.90
12289;DHT22;6207;49.308;7.336;2022-11-25T04:47:38;5.00;99.90
12289;DHT22;6207;49.308;7.336;2022-11-25T04:50:09;4.80;99.90
12289;DHT22;6207;49.308;7.336;2022-11-25T04:52:38;4.80;99.90
12289;DHT22;6207;49.308;7.336;2022-11-25T04:55:05;4.80;99.90
12289;DHT22;6207;49.308;7.336;2022-11-25T04:57:32;4.80;99.90
12289;DHT22;6207;49.308;7.336;2022-11-25T04:59:59;4.80;99.90
12289;DHT22;6207;49.308;7.336;2022-11-25T05:02:27;4.80;99.90
12289;DHT22;6207;49.308;7.336;2022-11-25T05:04:55;4.80;99.90
12289;DHT22;6207;49.308;7.336;2022-11-25T05:07:24;5.70;99.90
12289;DHT22;6207;49.308;7.336;2022-11-25T05:09:51;4.80;99.90
12289;DHT22;6207;49.308;7.336;2022-11-25T05:12:23;4.80;99.90
12289;DHT22;6207;49.308;7.336;2022-11-25T05:14:49;4.80;99.90
12289;DHT22;6207;49.308;7.336;2022-11-25T05:17:19;4.80;99.90
12289;DHT22;6207;49.308;7.336;2022-11-25T05:19:46;4.80;99.90
12289;DHT22;6207;49.308;7.336;2022-11-25T05:22:16;4.80;99.90
12289;DHT22;6207;49.308;7.336;2022-11-25T05:24:43;4.80;99.90
12289;DHT22;6207;49.308;7.336;2022-11-25T05:27:10;4.80;99.90
12289;DHT22;6207;49.308;7.336;2022-11-25T05:29:38;5.80;99.90
12289;DHT22;6207;49.308;7.336;2022-11-25T05:32:05;5.60;99.90
12289;DHT22;6207;49.308;7.336;2022-11-25T05:34:32;4.70;99.90
12289;DHT22;6207;49.308;7.336;2022-11-25T05:37:00;4.60;99.90
12289;DHT22;6207;49.308;7.336;2022-11-25T05:39:27;4.70;99.90
12289;DHT22;6207;49.308;7.336;2022-11-25T05:41:54;4.70;99.90
12289;DHT22;6207;49.308;7.336;2022-11-25T05:44:21;4.80;99.90
12289;DHT22;6207;49.308;7.336;2022-11-25T05:46:49;4.70;99.90
12289;DHT22;6207;49.308;7.336;2022-11-25T05:49:16;4.70;99.90
12289;DHT22;6207;49.308;7.336;2022-11-25T05:51:43;4.80;99.90
12289;DHT22;6207;49.308;7.336;2022-11-25T05:54:10;5.20;99.90
12289;DHT22;6207;49.308;7.336;2022-11-25T05:56:37;4.90;99.90
12289;DHT22;6207;49.308;7.336;2022-11-25T05:59:04;4.90;99.90
12289;DHT22;6207;49.308;7.336;2022-11-25T06:01:32;5.10;99.90
12289;DHT22;6207;49.308;7.336;2022-11-25T06:04:02;5.10;99.90
12289;DHT22;6207;49.308;7.336;2022-11-25T06:06:29;6.30;99.90
12289;DHT22;6207;49.308;7.336;2022-11-25T06:08:56;6.40;99.90
12289;DHT22;6207;49.308;7.336;2022-11-25T06:11:23;7.40;99.90
12289;DHT22;6207;49.308;7.336;2022-11-25T06:13:51;7.60;99.90
12289;DHT22;6207;49.308;7.336;2022-11-25T06:16:20;7.00;99.90
12289;DHT22;6207;49.308;7.336;2022-11-25T06:18:48;7.20;99.90
12289;DHT22;6207;49.308;7.336;2022-11-25T06:21:16;7.10;99.90
12289;DHT22;6207;49.308;7.336;2022-11-25T06:23:52;8.10;99.90
12289;DHT22;6207;49.308;7.336;2022-11-25T06:26:43;7.30;99.90
12289;DHT22;6207;49.308;7.336;2022-11-25T06:29:10;6.70;99.90
12289;DHT22;6207;49.308;7.336;2022-11-25T06:31:40;6.60;99.90
12289;DHT22;6207;49.308;7.336;2022-11-25T06:34:07;6.60;99.90
12289;DHT22;6207;49.308;7.336;2022-11-25T06:36:35;6.60;99.90
12289;DHT22;6207;49.308;7.336;2022-11-25T06:39:02;6.70;99.90
12289;DHT22;6207;49.308;7.336;2022-11-25T06:41:29;6.60;99.90
12289;DHT22;6207;49.308;7.336;2022-11-25T06:43:55;6.60;99.90
12289;DHT22;6207;49.308;7.336;2022-11-25T06:46:22;6.60;99.90
12289;DHT22;6207;49.308;7.336;2022-11-25T06:48:52;6.60;99.90
12289;DHT22;6207;49.308;7.336;2022-11-25T06:51:19;6.60;99.90
12289;DHT22;6207;49.308;7.336;2022-11-25T06:53:46;6.50;99.90
12289;DHT22;6207;49.308;7.336;2022-11-25T06:56:24;6.50;99.90
12289;DHT22;6207;49.308;7.336;2022-11-25T06:58:52;6.50;99.90
12289;DHT22;6207;49.308;7.336;2022-11-25T07:01:25;6.50;99.90
12289;DHT22;6207;49.308;7.336;2022-11-25T07:03:59;6.50;99.90
12289;DHT22;6207;49.308;7.336;2022-11-25T07:06:27;6.40;99.90
12289;DHT22;6207;49.308;7.336;2022-11-25T07:08:54;6.40;99.90
12289;DHT22;6207;49.308;7.336;2022-11-25T07:11:23;6.40;99.90
12289;DHT22;6207;49.308;7.336;2022-11-25T07:13:52;6.70;99.90
12289;DHT22;6207;49.308;7.336;2022-11-25T07:16:20;6.40;99.90
12289;DHT22;6207;49.308;7.336;2022-11-25T07:18:47;6.40;99.90
12289;DHT22;6207;49.308;7.336;2022-11-25T07:21:16;6.70;99.90
12289;DHT22;6207;49.308;7.336;2022-11-25T07:23:45;6.40;99.90
12289;DHT22;6207;49.308;7.336;2022-11-25T07:26:24;6.40;99.90
12289;DHT22;6207;49.308;7.336;2022-11-25T07:28:54;6.40;99.90
12289;DHT22;6207;49.308;7.336;2022-11-25T07:31:28;6.50;99.90
12289;DHT22;6207;49.308;7.336;2022-11-25T07:34:02;6.50;99.90
12289;DHT22;6207;49.308;7.336;2022-11-25T07:36:30;6.50;99.90
12289;DHT22;6207;49.308;7.336;2022-11-25T07:38:59;6.50;99.90
12289;DHT22;6207;49.308;7.336;2022-11-25T07:41:27;6.50;99.90
12289;DHT22;6207;49.308;7.336;2022-11-25T07:43:59;6.50;99.90
12289;DHT22;6207;49.308;7.336;2022-11-25T07:46:34;6.50;99.90
12289;DHT22;6207;49.308;7.336;2022-11-25T07:49:22;6.50;99.90
12289;DHT22;6207;49.308;7.336;2022-11-25T07:51:52;6.50;99.90
12289;DHT22;6207;49.308;7.336;2022-11-25T07:54:20;6.60;99.90
12289;DHT22;6207;49.308;7.336;2022-11-25T07:56:48;7.20;99.90
12289;DHT22;6207;49.308;7.336;2022-11-25T07:59:18;6.90;99.90
12289;DHT22;6207;49.308;7.336;2022-11-25T08:01:48;6.80;99.90
12289;DHT22;6207;49.308;7.336;2022-11-25T08:04:15;6.80;99.90
12289;DHT22;6207;49.308;7.336;2022-11-25T08:06:48;6.80;99.90
12289;DHT22;6207;49.308;7.336;2022-11-25T08:09:17;6.90;99.90
12289;DHT22;6207;49.308;7.336;2022-11-25T08:11:46;6.80;99.90
12289;DHT22;6207;49.308;7.336;2022-11-25T08:14:14;6.90;99.90
12289;DHT22;6207;49.308;7.336;2022-11-25T08:16:41;6.90;99.90
12289;DHT22;6207;49.308;7.336;2022-11-25T08:19:11;6.90;99.90
12289;DHT22;6207;49.308;7.336;2022-11-25T08:21:40;7.00;99.90
12289;DHT22;6207;49.308;7.336;2022-11-25T08:24:08;6.90;99.90
12289;DHT22;6207;49.308;7.336;2022-11-25T08:26:38;7.00;99.90
12289;DHT22;6207;49.308;7.336;2022-11-25T08:29:06;7.50;99.90
12289;DHT22;6207;49.308;7.336;2022-11-25T08:31:35;7.00;99.90
12289;DHT22;6207;49.308;7.336;2022-11-25T08:34:04;7.00;99.90
12289;DHT22;6207;49.308;7.336;2022-11-25T08:36:32;7.00;99.90
12289;DHT22;6207;49.308;7.336;2022-11-25T08:39:02;7.00;99.90
12289;DHT22;6207;49.308;7.336;2022-11-25T08:41:48;7.00;99.90
12289;DHT22;6207;49.308;7.336;2022-11-25T08:44:15;7.00;99.90
12289;DHT22;6207;49.308;7.336;2022-11-25T08:46:42;7.10;99.90
12289;DHT22;6207;49.308;7.336;2022-11-25T08:49:11;7.10;99.90
12289;DHT22;6207;49.308;7.336;2022-11-25T08:51:38;7.20;99.90
12289;DHT22;6207;49.308;7.336;2022-11-25T08:54:06;7.20;99.90
12289;DHT22;6207;49.308;7.336;2022-11-25T08:56:33;7.20;99.90
12289;DHT22;6207;49.308;7.336;2022-11-25T08:59:00;7.10;99.90
12289;DHT22;6207;49.308;7.336;2022-11-25T09:01:27;7.20;99.90
12289;DHT22;6207;49.308;7.336;2022-11-25T09:03:55;7.20;99.90
12289;DHT22;6207;49.308;7.336;2022-11-25T09:06:24;7.20;99.90
12289;DHT22;6207;49.308;7.336;2022-11-25T09:08:55;7.30;99.90
12289;DHT22;6207;49.308;7.336;2022-11-25T09:11:22;7.30;99.90
12289;DHT22;6207;49.308;7.336;2022-11-25T09:13:49;7.30;99.90
12289;DHT22;6207;49.308;7.336;2022-11-25T09:16:16;7.30;99.90
12289;DHT22;6207;49.308;7.336;2022-11-25T09:18:43;7.40;99.90
12289;DHT22;6207;49.308;7.336;2022-11-25T09:21:13;7.40;99.90
12289;DHT22;6207;49.308;7.336;2022-11-25T09:23:40;7.40;99.90
12289;DHT22;6207;49.308;7.336;2022-11-25T09:28:47;7.50;99.90
12289;DHT22;6207;49.308;7.336;2022-11-25T09:31:13;7.50;99.90
12289;DHT22;6207;49.308;7.336;2022-11-25T09:33:40;8.50;99.90
12289;DHT22;6207;49.308;7.336;2022-11-25T09:36:09;7.70;99.90
12289;DHT22;6207;49.308;7.336;2022-11-25T09:38:37;7.80;99.90
12289;DHT22;6207;49.308;7.336;2022-11-25T09:46:58;8.10;99.90
12289;DHT22;6207;49.308;7.336;2022-11-25T09:49:35;8.10;99.90
12289;DHT22;6207;49.308;7.336;2022-11-25T09:54:45;8.20;99.90
12289;DHT22;6207;49.308;7.336;2022-11-25T10:00:18;8.20;99.90
12289;DHT22;6207;49.308;7.336;2022-11-25T10:05:42;8.30;99.90
12289;DHT22;6207;49.308;7.336;2022-11-25T10:08:21;8.40;99.90
12289;DHT22;6207;49.308;7.336;2022-11-25T10:14:06;8.40;99.90
12289;DHT22;6207;49.308;7.336;2022-11-25T10:17:00;8.70;99.90
12289;DHT22;6207;49.308;7.336;2022-11-25T10:24:55;9.00;99.90
12289;DHT22;6207;49.308;7.336;2022-11-25T10:27:35;8.90;99.90
12289;DHT22;6207;49.308;7.336;2022-11-25T10:30:22;9.00;99.90
12289;DHT22;6207;49.308;7.336;2022-11-25T10:33:03;9.10;99.90
12289;DHT22;6207;49.308;7.336;2022-11-25T10:35:34;9.00;99.90
12289;DHT22;6207;49.308;7.336;2022-11-25T10:38:06;8.90;99.90
12289;DHT22;6207;49.308;7.336;2022-11-25T10:40:47;8.90;99.90
12289;DHT22;6207;49.308;7.336;2022-11-25T10:43:15;9.00;99.90
12289;DHT22;6207;49.308;7.336;2022-11-25T10:46:16;9.00;99.90
12289;DHT22;6207;49.308;7.336;2022-11-25T10:51:30;9.00;99.90
12289;DHT22;6207;49.308;7.336;2022-11-25T10:54:18;9.30;99.90
12289;DHT22;6207;49.308;7.336;2022-11-25T10:57:00;9.40;99.90
12289;DHT22;6207;49.308;7.336;2022-11-25T10:59:38;9.50;99.90
12289;DHT22;6207;49.308;7.336;2022-11-25T11:02:26;9.50;99.90
12289;DHT22;6207;49.308;7.336;2022-11-25T11:05:27;9.60;99.90
12289;DHT22;6207;49.308;7.336;2022-11-25T11:08:15;9.60;99.90
12289;DHT22;6207;49.308;7.336;2022-11-25T11:10:44;9.60;99.90
12289;DHT22;6207;49.308;7.336;2022-11-25T11:13:24;9.40;99.90
12289;DHT22;6207;49.308;7.336;2022-11-25T11:15:52;9.50;99.90
12289;DHT22;6207;49.308;7.336;2022-11-25T11:18:26;9.50;99.90
12289;DHT22;6207;49.308;7.336;2022-11-25T11:20:55;9.20;99.90
12289;DHT22;6207;49.308;7.336;2022-11-25T11:23:23;9.60;99.90
12289;DHT22;6207;49.308;7.336;2022-11-25T11:26:04;9.30;99.90
12289;DHT22;6207;49.308;7.336;2022-11-25T11:31:18;9.20;99.90
12289;DHT22;6207;49.308;7.336;2022-11-25T11:36:19;9.60;99.90
12289;DHT22;6207;49.308;7.336;2022-11-25T11:38:52;9.80;99.90
12289;DHT22;6207;49.308;7.336;2022-11-25T11:41:44;9.90;99.90
12289;DHT22;6207;49.308;7.336;2022-11-25T11:46:58;10.40;99.90
12289;DHT22;6207;49.308;7.336;2022-11-25T11:53:12;10.90;99.90
12289;DHT22;6207;49.308;7.336;2022-11-25T11:55:48;11.20;99.90
12289;DHT22;6207;49.308;7.336;2022-11-25T12:06:36;10.40;99.90
12289;DHT22;6207;49.308;7.336;2022-11-25T12:09:09;10.30;99.90
12289;DHT22;6207;49.308;7.336;2022-11-25T12:11:42;10.30;99.90
12289;DHT22;6207;49.308;7.336;2022-11-25T12:14:52;10.20;99.90
12289;DHT22;6207;49.308;7.336;2022-11-25T12:17:22;10.40;99.90
12289;DHT22;6207;49.308;7.336;2022-11-25T12:20:16;10.30;99.90
12289;DHT22;6207;49.308;7.336;2022-11-25T12:22:58;10.40;99.90
12289;DHT22;6207;49.308;7.336;2022-11-25T12:25:40;10.40;99.90
12289;DHT22;6207;49.308;7.336;2022-11-25T12:28:23;10.40;99.90
12289;DHT22;6207;49.308;7.336;2022-11-25T12:36:30;10.20;99.90
12289;DHT22;6207;49.308;7.336;2022-11-25T12:39:03;10.20;99.90
12289;DHT22;6207;49.308;7.336;2022-11-25T12:41:46;10.30;99.90
12289;DHT22;6207;49.308;7.336;2022-11-25T12:44:52;10.20;99.90
12289;DHT22;6207;49.308;7.336;2022-11-25T12:47:10;10.20;99.90
12289;DHT22;6207;49.308;7.336;2022-11-25T12:49:46;10.20;99.90
12289;DHT22;6207;49.308;7.336;2022-11-25T13:04:26;10.20;99.90
12289;DHT22;6207;49.308;7.336;2022-11-25T13:07:24;10.20;99.90
12289;DHT22;6207;49.308;7.336;2022-11-25T13:10:12;10.20;99.90
12289;DHT22;6207;49.308;7.336;2022-11-25T13:12:45;10.20;99.90
12289;DHT22;6207;49.308;7.336;2022-11-25T13:15:50;10.20;99.90
12289;DHT22;6207;49.308;7.336;2022-11-25T13:18:22;10.50;99.90
12289;DHT22;6207;49.308;7.336;2022-11-25T13:20:52;10.10;99.90
12289;DHT22;6207;49.308;7.336;2022-11-25T13:25:49;10.10;99.90
12289;DHT22;6207;49.308;7.336;2022-11-25T13:28:33;10.00;99.90
12289;DHT22;6207;49.308;7.336;2022-11-25T13:31:20;10.00;99.90
12289;DHT22;6207;49.308;7.336;2022-11-25T13:36:17;10.00;99.90
12289;DHT22;6207;49.308;7.336;2022-11-25T13:44:17;10.10;99.90
12289;DHT22;6207;49.308;7.336;2022-11-25T13:46:55;10.10;99.90
12289;DHT22;6207;49.308;7.336;2022-11-25T13:49:51;10.10;99.90
12289;DHT22;6207;49.308;7.336;2022-11-25T13:54:51;10.10;99.90
12289;DHT22;6207;49.308;7.336;2022-11-25T13:57:28;10.60;99.90
12289;DHT22;6207;49.308;7.336;2022-11-25T14:20:35;10.10;99.90
12289;DHT22;6207;49.308;7.336;2022-11-25T14:26:07;10.00;99.90
12289;DHT22;6207;49.308;7.336;2022-11-25T14:29:01;9.90;99.90
12289;DHT22;6207;49.308;7.336;2022-11-25T14:31:36;9.80;99.90
12289;DHT22;6207;49.308;7.336;2022-11-25T14:34:11;10.00;99.90
12289;DHT22;6207;49.308;7.336;2022-11-25T14:36:43;9.80;99.90
12289;DHT22;6207;49.308;7.336;2022-11-25T14:39:32;9.90;99.90
12289;DHT22;6207;49.308;7.336;2022-11-25T14:44:50;9.90;99.90
12289;DHT22;6207;49.308;7.336;2022-11-25T14:47:25;9.90;99.90
12289;DHT22;6207;49.308;7.336;2022-11-25T14:49:56;10.00;99.90
12289;DHT22;6207;49.308;7.336;2022-11-25T14:52:45;9.90;99.90
12289;DHT22;6207;49.308;7.336;2022-11-25T14:55:42;9.80;99.90
12289;DHT22;6207;49.308;7.336;2022-11-25T14:58:13;9.80;99.90
12289;DHT22;6207;49.308;7.336;2022-11-25T15:03:24;9.50;99.90
12289;DHT22;6207;49.308;7.336;2022-11-25T15:05:59;9.50;99.90
12289;DHT22;6207;49.308;7.336;2022-11-25T15:08:26;9.40;99.90
12289;DHT22;6207;49.308;7.336;2022-11-25T15:11:00;9.30;99.90
12289;DHT22;6207;49.308;7.336;2022-11-25T15:16:12;9.10;99.90
12289;DHT22;6207;49.308;7.336;2022-11-25T15:18:47;9.00;99.90
12289;DHT22;6207;49.308;7.336;2022-11-25T15:21:16;8.90;99.90
12289;DHT22;6207;49.308;7.336;2022-11-25T15:23:44;8.80;99.90
12289;DHT22;6207;49.308;7.336;2022-11-25T15:26:26;8.90;99.90
12289;DHT22;6207;49.308;7.336;2022-11-25T15:28:58;8.80;99.90
12289;DHT22;6207;49.308;7.336;2022-11-25T15:31:31;8.70;99.90
12289;DHT22;6207;49.308;7.336;2022-11-25T15:34:02;8.60;99.90
12289;DHT22;6207;49.308;7.336;2022-11-25T15:36:29;8.60;99.90
12289;DHT22;6207;49.308;7.336;2022-11-25T15:39:32;8.60;99.90
12289;DHT22;6207;49.308;7.336;2022-11-25T15:42:04;8.50;99.90
12289;DHT22;6207;49.308;7.336;2022-11-25T15:44:37;8.40;99.90
12289;DHT22;6207;49.308;7.336;2022-11-25T15:47:26;8.60;99.90
12289;DHT22;6207;49.308;7.336;2022-11-25T15:50:04;8.40;99.90
12289;DHT22;6207;49.308;7.336;2022-11-25T15:52:35;8.30;99.90
12289;DHT22;6207;49.308;7.336;2022-11-25T15:55:18;8.30;99.90
12289;DHT22;6207;49.308;7.336;2022-11-25T15:57:48;8.30;99.90
12289;DHT22;6207;49.308;7.336;2022-11-25T16:00:18;8.30;99.90
12289;DHT22;6207;49.308;7.336;2022-11-25T16:10:30;8.40;99.90
12289;DHT22;6207;49.308;7.336;2022-11-25T16:15:59;8.20;99.90
12289;DHT22;6207;49.308;7.336;2022-11-25T16:21:10;8.20;99.90
12289;DHT22;6207;49.308;7.336;2022-11-25T16:23:50;8.20;99.90
12289;DHT22;6207;49.308;7.336;2022-11-25T16:26:24;8.20;99.90
12289;DHT22;6207;49.308;7.336;2022-11-25T16:28:55;8.20;99.90
12289;DHT22;6207;49.308;7.336;2022-11-25T16:31:23;8.30;99.90
12289;DHT22;6207;49.308;7.336;2022-11-25T16:33:57;8.10;99.90
12289;DHT22;6207;49.308;7.336;2022-11-25T16:36:25;8.10;99.90
12289;DHT22;6207;49.308;7.336;2022-11-25T16:38:52;8.30;99.90
12289;DHT22;6207;49.308;7.336;2022-11-25T16:41:23;7.90;99.90
12289;DHT22;6207;49.308;7.336;2022-11-25T16:43:51;8.00;99.90
12289;DHT22;6207;49.308;7.336;2022-11-25T16:46:18;7.90;99.90
12289;DHT22;6207;49.308;7.336;2022-11-25T16:48:46;8.10;99.90
12289;DHT22;6207;49.308;7.336;2022-11-25T16:51:20;7.90;99.90
12289;DHT22;6207;49.308;7.336;2022-11-25T16:53:48;7.90;99.90
12289;DHT22;6207;49.308;7.336;2022-11-25T16:56:22;7.80;99.90
12289;DHT22;6207;49.308;7.336;2022-11-25T16:58:49;7.70;99.90
12289;DHT22;6207;49.308;7.336;2022-11-25T17:01:16;7.70;99.90
12289;DHT22;6207;49.308;7.336;2022-11-25T17:03:45;7.60;99.90
12289;DHT22;6207;49.308;7.336;2022-11-25T17:06:14;7.60;99.90
12289;DHT22;6207;49.308;7.336;2022-11-25T17:08:48;7.40;99.90
12289;DHT22;6207;49.308;7.336;2022-11-25T17:13:49;7.40;99.90
12289;DHT22;6207;49.308;7.336;2022-11-25T17:16:19;7.40;99.90
12289;DHT22;6207;49.308;7.336;2022-11-25T17:18:48;7.30;99.90
12289;DHT22;6207;49.308;7.336;2022-11-25T17:21:16;7.10;99.90
12289;DHT22;6207;49.308;7.336;2022-11-25T17:23:44;6.90;99.90
12289;DHT22;6207;49.308;7.336;2022-11-25T17:26:25;6.90;99.90
12289;DHT22;6207;49.308;7.336;2022-11-25T17:28:58;6.90;99.90
12289;DHT22;6207;49.308;7.336;2022-11-25T17:31:28;7.00;99.90
12289;DHT22;6207;49.308;7.336;2022-11-25T17:33:55;7.00;99.90
12289;DHT22;6207;49.308;7.336;2022-11-25T17:36:22;7.10;99.90
12289;DHT22;6207;49.308;7.336;2022-11-25T17:38:49;7.10;99.90
12289;DHT22;6207;49.308;7.336;2022-11-25T17:41:18;7.10;99.90
12289;DHT22;6207;49.308;7.336;2022-11-25T17:43:48;7.20;99.90
12289;DHT22;6207;49.308;7.336;2022-11-25T17:46:16;6.80;99.90
12289;DHT22;6207;49.308;7.336;2022-11-25T17:48:43;6.70;99.90
12289;DHT22;6207;49.308;7.336;2022-11-25T17:51:12;6.60;99.90
12289;DHT22;6207;49.308;7.336;2022-11-25T17:53:40;6.50;99.90
12289;DHT22;6207;49.308;7.336;2022-11-25T17:56:24;6.30;99.90
12289;DHT22;6207;49.308;7.336;2022-11-25T17:58:53;6.30;99.90
12289;DHT22;6207;49.308;7.336;2022-11-25T18:01:20;6.20;99.90
12289;DHT22;6207;49.308;7.336;2022-11-25T18:03:47;6.20;99.90
12289;DHT22;6207;49.308;7.336;2022-11-25T18:06:19;6.20;99.90
12289;DHT22;6207;49.308;7.336;2022-11-25T18:08:46;6.10;99.90
12289;DHT22;6207;49.308;7.336;2022-11-25T18:11:15;6.00;99.90
12289;DHT22;6207;49.308;7.336;2022-11-25T18:13:45;6.00;99.90
12289;DHT22;6207;49.308;7.336;2022-11-25T18:16:13;5.90;99.90
12289;DHT22;6207;49.308;7.336;2022-11-25T18:18:43;5.90;99.90
12289;DHT22;6207;49.308;7.336;2022-11-25T18:21:11;5.90;99.90
12289;DHT22;6207;49.308;7.336;2022-11-25T18:23:38;6.00;99.90
12289;DHT22;6207;49.308;7.336;2022-11-25T18:26:07;5.90;99.90
12289;DHT22;6207;49.308;7.336;2022-11-25T18:28:35;6.10;99.90
12289;DHT22;6207;49.308;7.336;2022-11-25T18:31:04;6.00;99.90
12289;DHT22;6207;49.308;7.336;2022-11-25T18:33:31;5.80;99.90
12289;DHT22;6207;49.308;7.336;2022-11-25T18:35:58;6.00;99.90
12289;DHT22;6207;49.308;7.336;2022-11-25T18:38:25;5.80;99.90
12289;DHT22;6207;49.308;7.336;2022-11-25T18:40:51;5.80;99.90
12289;DHT22;6207;49.308;7.336;2022-11-25T18:43:22;5.90;99.90
12289;DHT22;6207;49.308;7.336;2022-11-25T18:45:51;5.90;99.90